• Join FlightAware (Why Join?)
  • Login
  • US Flag 
09:28PM EST


 

Airport Tracker/Info


-or-


 

Live Flight TrackerFlight Track Log ✈ AWE1578 ✈ 06-May-2013 ✈ KCLT - KPHL

Flight Track Log - Related Links

Times and Time Zones

All times are in EDT time to prevent confusion due to time zone crossing. See the AWE1578 flight status page for this flight to view local times or setup timezone preferences in your user account.

Time Position Orientation Groundspeed Altitude Reporting Facility
EDT Latitude Longitude Course Direction KTS MPH feet Rate Location/Type
03:04PM 35.1990 -81.2167 North  Level FlightAware Approximate
03:04PM 35.0930 -81.0710 52° Northeast 277 319 7,700  Level FlightAware
03:05PM 35.3022 -81.1370 52° Northeast  Level FlightAware Approximate
03:05PM 35.1000 -81.1300 278° West 291 335 8,100  Level FlightAware
03:05PM 35.1170 -81.1760 294° West 292 336 8,100 840 Level FlightAware
03:06PM 35.1350 -81.2080 305° West 305 351 8,900 2,400 Climbing FlightAware
03:06PM 35.1580 -81.2200 337° Northwest 308 354 9,700 1,320 Climbing FlightAware
03:06PM 35.1940 -81.2300 347° North 308 354 9,900 2,700 Climbing FlightAware
03:07PM 35.2120 -81.2010 53° Northeast 311 358 11,500 2,580 Climbing FlightAware
03:07PM 35.2720 -81.1640 27° Northeast 327 376 12,300 1,680 Climbing FlightAware
03:08PM 35.3350 -81.1250 27° Northeast 365 420 13,900 2,220 Climbing FlightAware
03:09PM 35.4050 -81.0810 27° Northeast 377 434 15,500 2,160 Climbing FlightAware
03:09PM 35.4680 -81.0420 27° Northeast 379 436 17,000 2,100 Climbing FlightAware
03:10PM 35.5300 -81.0030 27° Northeast 386 444 18,300 1,620 Climbing FlightAware
03:11PM 35.6020 -80.9570 27° Northeast 400 460 19,300 1,440 Climbing FlightAware
03:11PM 35.6630 -80.9120 31° Northeast 401 461 20,400 1,620 Climbing FlightAware
03:12PM 35.7310 -80.8320 44° Northeast 397 457 21,800 1,620 Climbing FlightAware
03:13PM 35.7820 -80.7580 50° Northeast 391 450 23,000 1,680 Climbing FlightAware
03:13PM 35.8172 -80.7122 45° Northeast 387 445 23,800  Climbing Atlanta Center
03:14PM 35.8290 -80.6920 49° Northeast 391 450 23,000 -840 Descending FlightAware
03:14PM 35.8690 -80.6350 49° Northeast 391 450 23,000 2,880 Level FlightAware
03:14PM 35.8872 -80.6094 50° Northeast 392 451 25,000  Climbing Atlanta Center
03:15PM 35.9090 -80.5780 49° Northeast 391 450 23,000 1,380 Descending FlightAware
03:15PM 35.9594 -80.5036 50° Northeast 392 451 26,400  Climbing Atlanta Center
03:16PM 35.9500 -80.5210 48° Northeast 391 450 23,000 960 Descending FlightAware
03:16PM 36.0775 -80.4728 12° North 390 449 27,400  Climbing Atlanta Center
03:17PM 36.0000 -80.4490 49° Northeast 391 450 23,000 660 Descending FlightAware
03:18PM 36.1560 -80.3727 46° Northeast  Level Estimated
03:19PM 36.1722 -80.2346 45° Northeast  Level Estimated
03:24PM 36.9679 -81.1223 46° Northeast 501 577 32,700  Level FlightAware ADS-B
03:27PM 37.1222 -80.8351 56° Northeast  Level Estimated
03:27PM 37.3112 -81.2287 56° Northeast 470 541 34,600  Level FlightAware ADS-B
03:28PM 37.4449 -81.1989 10° North 473 544 34,900 120 Climbing FlightAware ADS-B
03:29PM 37.6616 -81.1464 11° North 35,000  Climbing FlightAware ADS-B
03:30PM 37.6845 -81.1341 23° Northeast 469 540 35,000  Level FlightAware ADS-B
03:30PM 37.7064 -81.1180 30° Northeast 460 529 35,000  Level FlightAware ADS-B
03:30PM 37.7483 -81.0700 42° Northeast 438 504 35,000  Level FlightAware ADS-B
03:31PM 37.7696 -81.0304 56° Northeast 424 488 35,000  Level FlightAware ADS-B
03:31PM 37.7784 -81.0072 64° Northeast 416 479 35,000 240 Level FlightAware ADS-B
03:31PM 37.7871 -80.9753 71° East 408 470 35,100 180 Climbing FlightAware ADS-B
03:31PM 37.7922 -80.9430 79° East 401 461 35,100  Level FlightAware ADS-B
03:32PM 37.7970 -80.8710 85° East 396 456 35,100 -120 Level FlightAware
03:32PM 37.8030 -80.7860 85° East 396 456 35,000 -120 Descending FlightAware
03:33PM 37.8060 -80.7390 85° East 397 457 35,000  Level FlightAware
03:34PM 37.8130 -80.6430 85° East 397 457 35,000  Level FlightAware
03:34PM 37.8180 -80.5640 85° East 397 457 35,000  Level FlightAware
03:35PM 37.8250 -80.4660 85° East 397 457 35,000  Level FlightAware
03:36PM 37.8310 -80.3870 84° East 397 457 35,000  Level FlightAware
03:36PM 37.8360 -80.3080 85° East 397 457 35,000  Level FlightAware
03:37PM 37.8470 -80.1010 86° East 419 482 35,000  Level FlightAware
03:38PM 37.8520 -80.0180 86° East 419 482 35,000  Level FlightAware
03:39PM 37.8580 -79.9340 85° East 419 482 35,000  Level FlightAware
03:39PM 37.8650 -79.8300 85° East 419 482 35,000  Level FlightAware
03:40PM 37.8710 -79.7470 85° East 419 482 35,000  Level FlightAware
03:41PM 37.8770 -79.6640 85° East 419 482 35,000  Level FlightAware
03:41PM 37.8830 -79.5810 85° East 419 482 35,000 -540 Level FlightAware
03:44PM 37.9140 -78.9970 86° East 33,000 -600 Descending FlightAware
03:45PM 37.9190 -78.9540 82° East 450 518 33,000  Level FlightAware
03:45PM 37.9310 -78.8610 81° East 450 518 33,000  Level FlightAware
03:46PM 37.9440 -78.7550 81° East 448 516 33,000  Level FlightAware
03:47PM 37.9580 -78.6380 81° East 448 516 33,000  Level FlightAware
03:48PM 37.9680 -78.5440 82° East 446 513 33,000  Level FlightAware
03:48PM 37.9840 -78.4080 81° East 444 511 33,000 -240 Level FlightAware
03:49PM 37.9970 -78.3020 81° East 444 511 32,700 -720 Descending FlightAware
03:50PM 38.0180 -78.1850 77° East 452 520 32,000 -1,080 Descending FlightAware
03:50PM 38.0530 -78.0800 67° East 460 529 31,300 -720 Descending FlightAware
03:51PM 38.1020 -77.9780 59° Northeast 472 543 31,000 -240 Descending FlightAware
03:52PM 38.1470 -77.8860 58° Northeast 472 543 31,000 -480 Level FlightAware
03:52PM 38.1890 -77.8020 58° Northeast 453 521 30,400 -1,140 Descending FlightAware
03:53PM 38.2238 -77.7304 58° Northeast 434 499 29,800 -1,020 Descending FlightAware ADS-B
03:54PM 38.2457 -77.6345 74° East 417 480 29,200 -960 Descending FlightAware ADS-B
03:55PM 38.2710 -77.5000 76° East 375 432 28,200 -960 Descending FlightAware
03:55PM 38.2880 -77.4150 76° East 374 430 27,600 -1,140 Descending FlightAware
03:56PM 38.3052 -77.3674 65° Northeast 384 442 27,100 -1,140 Descending FlightAware ADS-B
03:56PM 38.3616 -77.2795 51° Northeast 383 441 26,300 -960 Descending FlightAware ADS-B
03:57PM 38.3985 -77.2227 50° Northeast 379 436 25,800 -1,020 Descending FlightAware ADS-B
03:58PM 38.4349 -77.1666 50° Northeast 379 436 25,200 -1,080 Descending FlightAware ADS-B
03:58PM 38.4755 -77.1038 50° Northeast 379 436 24,600 -960 Descending FlightAware ADS-B
03:59PM 38.5120 -77.0474 50° Northeast 378 435 24,100 -600 Descending FlightAware ADS-B
03:59PM 38.5498 -76.9888 50° Northeast 375 432 24,000 -120 Descending FlightAware ADS-B
04:00PM 38.5886 -76.9285 51° Northeast 372 428 24,000  Level FlightAware ADS-B
04:01PM 38.6313 -76.8621 51° Northeast 371 427 24,000 -120 Level FlightAware ADS-B
04:01PM 38.6668 -76.8066 51° Northeast 373 429 23,900 -720 Descending FlightAware ADS-B
04:02PM 38.7157 -76.6983 60° Northeast 397 457 23,000 -960 Descending FlightAware ADS-B
04:02PM 38.7205 -76.6756 75° East 399 459 22,900 -960 Descending FlightAware ADS-B
04:03PM 38.7370 -76.5980 75° East 400 460 22,300 -1,020 Descending FlightAware ADS-B
04:03PM 38.7514 -76.5286 75° East 393 452 21,800 -1,080 Descending FlightAware ADS-B
04:04PM 38.7689 -76.4446 75° East 386 444 21,100 -1,500 Descending FlightAware ADS-B
04:04PM 38.7833 -76.3750 75° East 383 441 20,100 -1,980 Descending FlightAware ADS-B
04:05PM 38.7981 -76.3039 75° East 376 433 19,000 -1,980 Descending FlightAware ADS-B
04:05PM 38.8117 -76.2377 75° East 372 428 18,000 -1,920 Descending FlightAware ADS-B
04:06PM 38.8247 -76.1742 75° East 368 423 17,100 -1,920 Descending FlightAware ADS-B
04:06PM 38.8379 -76.1101 75° East 363 418 16,100 -1,920 Descending FlightAware ADS-B
04:07PM 38.8505 -76.0479 75° East 358 412 15,200 -1,140 Descending FlightAware ADS-B
04:08PM 38.8661 -75.9706 75° East 351 404 14,800 -360 Descending FlightAware ADS-B
04:08PM 38.8789 -75.9072 75° East 347 399 14,800  Level FlightAware ADS-B
04:09PM 38.8951 -75.8441 72° East 352 405 14,800 -180 Level FlightAware ADS-B
04:09PM 38.9054 -75.8273 52° Northeast 353 406 14,700 -660 Descending FlightAware ADS-B
04:09PM 38.9173 -75.8149 39° Northeast 353 406 14,600 -720 Descending FlightAware ADS-B
04:09PM 38.9300 -75.8068 26° Northeast 349 402 14,500 -960 Descending FlightAware ADS-B
04:10PM 38.9752 -75.7875 18° North 337 388 14,000 -1,020 Descending FlightAware ADS-B
04:10PM 39.0291 -75.7641 19° North 331 381 13,400 -960 Descending FlightAware ADS-B
04:11PM 39.0750 -75.7443 19° North 329 379 12,900 -840 Descending FlightAware ADS-B
04:11PM 39.1100 -75.7290 19° North 305 351 12,500 -1,020 Descending FlightAware
04:12PM 39.1349 -75.7185 18° North 307 353 12,200 -1,680 Descending FlightAware ADS-B
04:12PM 39.1819 -75.6982 19° North 305 351 11,300 -1,560 Descending FlightAware ADS-B
04:13PM 39.2285 -75.6780 19° North 302 348 10,400 -1,320 Descending FlightAware ADS-B
04:13PM 39.2631 -75.6633 18° North 301 346 10,000 -780 Descending FlightAware ADS-B
04:13PM 39.2837 -75.6544 18° North 302 348 9,900 -480 Descending FlightAware ADS-B
04:14PM 39.2972 -75.6495 16° North 303 349 9,800 -480 Descending FlightAware ADS-B
04:14PM 39.3017 -75.6488 North 304 350 9,800  Level FlightAware ADS-B
04:14PM 39.3088 -75.6486 North 306 352 9,800  Level FlightAware ADS-B
04:14PM 39.3145 -75.6494 354° North 307 353 9,800  Level FlightAware ADS-B
04:14PM 39.3397 -75.6560 349° North 308 354 9,800 -180 Level FlightAware ADS-B
04:14PM 39.3622 -75.6626 347° North 307 353 9,700 -780 Descending FlightAware ADS-B
04:15PM 39.3830 -75.6688 347° North 305 351 9,400 -1,560 Descending FlightAware ADS-B
04:15PM 39.4056 -75.6752 348° North 305 351 8,900 -1,800 Descending FlightAware ADS-B
04:15PM 39.4109 -75.6761 353° North 304 350 8,800 -1,500 Descending FlightAware ADS-B
04:15PM 39.4223 -75.6763 359° North 302 348 8,600 -1,440 Descending FlightAware ADS-B
04:15PM 39.4461 -75.6738 North 298 343 8,200 -1,500 Descending FlightAware ADS-B
04:16PM 39.4673 -75.6711 North 294 338 7,800 -1,560 Descending FlightAware ADS-B
04:16PM 39.4885 -75.6683 North 296 341 7,400 -1,560 Descending FlightAware ADS-B
04:16PM 39.5095 -75.6654 North 294 338 7,000 -1,320 Descending FlightAware ADS-B
04:16PM 39.5311 -75.6624 North 290 334 6,700 -1,320 Descending FlightAware ADS-B
04:17PM 39.5520 -75.6593 North 289 333 6,300 -1,440 Descending FlightAware ADS-B
04:17PM 39.5764 -75.6558 North 286 329 5,900 -900 Descending FlightAware ADS-B
04:17PM 39.5968 -75.6530 North 287 330 5,800 -240 Descending FlightAware ADS-B
04:17PM 39.6169 -75.6504 North 286 329 5,800  Level FlightAware ADS-B
04:18PM 39.6427 -75.6458 North 272 313 5,800  Level FlightAware ADS-B
04:18PM 39.6502 -75.6421 21° North 268 308 5,800  Level FlightAware ADS-B
04:18PM 39.6541 -75.6394 28° Northeast 265 305 5,800 -600 Level FlightAware ADS-B
04:18PM 39.6597 -75.6340 37° Northeast 260 299 5,700 -720 Descending FlightAware ADS-B
04:18PM 39.6624 -75.6308 42° Northeast 257 296 5,700 -540 Level FlightAware ADS-B
04:18PM 39.6698 -75.6207 46° Northeast 253 291 5,600 -1,200 Descending FlightAware ADS-B
04:19PM 39.6825 -75.6030 47° Northeast 250 288 5,200 -1,500 Descending FlightAware ADS-B
04:19PM 39.6952 -75.5857 46° Northeast 253 291 4,800 -1,500 Descending FlightAware ADS-B
04:19PM 39.7088 -75.5671 46° Northeast 252 290 4,400 -1,320 Descending FlightAware ADS-B
04:19PM 39.7215 -75.5497 46° Northeast 250 288 4,100 -1,020 Descending FlightAware ADS-B
04:20PM 39.7337 -75.5329 47° Northeast 245 282 3,900 -600 Descending FlightAware ADS-B
04:20PM 39.7450 -75.5174 47° Northeast 233 268 3,800 -600 Descending FlightAware ADS-B
04:20PM 39.7559 -75.5022 47° Northeast 219 252 3,600 -780 Descending FlightAware ADS-B
04:20PM 39.7662 -75.4879 47° Northeast 205 236 3,400 -780 Descending FlightAware ADS-B
04:21PM 39.7761 -75.4737 48° Northeast 187 215 3,200 -840 Descending FlightAware ADS-B
04:21PM 39.7800 -75.4680 48° Northeast 181 208 3,100 -780 Descending FlightAware ADS-B
04:21PM 39.7850 -75.4609 47° Northeast 175 201 3,000 -1,200 Descending FlightAware ADS-B
04:21PM 39.7938 -75.4491 46° Northeast 170 196 2,600 -1,380 Descending FlightAware ADS-B
04:21PM 39.8021 -75.4379 46° Northeast 169 194 2,300 -1,140 Descending FlightAware ADS-B
04:22PM 39.8112 -75.4254 47° Northeast 168 193 2,000 -960 Descending FlightAware ADS-B
04:22PM 39.8192 -75.4142 47° Northeast 159 183 1,800 -420 Descending FlightAware ADS-B
04:22PM 39.8275 -75.4025 47° Northeast 156 180 1,800  Level FlightAware ADS-B
04:22PM 39.8327 -75.3951 48° Northeast 148 170 1,800  Level FlightAware ADS-B
04:23PM 39.8357 -75.3893 56° Northeast 143 165 1,800 -420 Level FlightAware ADS-B
04:23PM 39.8380 -75.3837 62° Northeast 140 161 1,700 -600 Descending FlightAware ADS-B
04:23PM 39.8388 -75.3814 66° East 139 160 1,700 -900 Level FlightAware ADS-B
04:23PM 39.8397 -75.3783 69° East 138 159 1,600 -1,200 Descending FlightAware ADS-B
04:23PM 39.8417 -75.3696 73° East 135 155 1,400 -1,200 Descending FlightAware ADS-B
04:23PM 39.8443 -75.3574 74° East 135 155 1,100 -960 Descending FlightAware ADS-B
04:23PM 39.8470 -75.3440 75° East 137 158 900 -780 Descending FlightAware ADS-B
04:24PM 39.8496 -75.3312 75° East 137 158 700 -780 Descending FlightAware ADS-B
04:24PM 39.8524 -75.3177 75° East 135 155 500 -720 Descending FlightAware ADS-B
04:24PM 39.8553 -75.3029 76° East 134 154 300 -660 Descending FlightAware ADS-B